createdAt,value
2023-02-18T00:00:20.181Z,6.30
2023-02-18T00:03:06.270Z,6.25
2023-02-18T00:05:52.693Z,6.16
2023-02-18T00:08:39.301Z,6.12
2023-02-18T00:11:25.610Z,6.11
2023-02-18T00:14:13.894Z,6.05
2023-02-18T00:16:59.920Z,6.18
2023-02-18T00:19:45.523Z,6.16
2023-02-18T00:22:31.431Z,6.05
2023-02-18T00:25:17.445Z,6.05
2023-02-18T00:28:03.385Z,6.14
2023-02-18T00:30:49.240Z,6.06
2023-02-18T00:33:35.042Z,6.11
2023-02-18T00:36:22.262Z,6.09
2023-02-18T00:39:10.066Z,5.96
2023-02-18T00:41:55.928Z,6.01
2023-02-18T00:44:41.742Z,5.98
2023-02-18T00:47:27.783Z,5.91
2023-02-18T00:50:13.730Z,5.95
2023-02-18T00:52:59.658Z,5.82
2023-02-18T00:55:47.992Z,5.90
2023-02-18T00:58:34.848Z,5.72
2023-02-18T01:01:23.283Z,5.80
2023-02-18T01:04:09.270Z,5.62
2023-02-18T01:06:54.961Z,5.68
2023-02-18T01:09:40.763Z,5.67
2023-02-18T01:12:26.825Z,5.55
2023-02-18T01:15:15.970Z,5.51
2023-02-18T01:18:01.919Z,5.49
2023-02-18T01:20:48.549Z,5.37
2023-02-18T01:23:35.765Z,5.46
2023-02-18T01:26:21.704Z,5.42
2023-02-18T01:29:07.580Z,5.30
2023-02-18T01:31:53.492Z,4.85
2023-02-18T01:34:39.847Z,5.16
2023-02-18T01:37:25.702Z,5.08
2023-02-18T01:40:13.542Z,5.11
2023-02-18T01:42:59.707Z,5.05
2023-02-18T01:45:51.697Z,5.04
2023-02-18T01:48:48.246Z,5.01
2023-02-18T01:51:37.469Z,4.61
2023-02-18T01:54:35.124Z,4.80
2023-02-18T01:57:23.558Z,4.86
2023-02-18T02:00:17.028Z,4.88
2023-02-18T02:03:05.513Z,4.91
2023-02-18T02:05:51.466Z,4.93
2023-02-18T02:08:37.295Z,4.87
2023-02-18T02:11:33.230Z,4.87
2023-02-18T02:14:55.668Z,4.75
2023-02-18T02:17:49.012Z,4.70
2023-02-18T02:20:53.178Z,4.60
2023-02-18T02:24:11.909Z,4.61
2023-02-18T02:27:10.484Z,4.66
2023-02-18T02:29:56.197Z,4.75
2023-02-18T02:32:58.624Z,4.75
2023-02-18T02:36:06.009Z,4.76
2023-02-18T02:39:19.135Z,4.73
2023-02-18T02:42:05.293Z,4.79
2023-02-18T02:45:06.427Z,4.73
2023-02-18T02:47:57.106Z,4.77
2023-02-18T02:51:18.412Z,4.77
2023-02-18T02:54:23.625Z,4.70
2023-02-18T02:57:13.873Z,4.77
2023-02-18T03:00:13.608Z,4.75
2023-02-18T03:03:21.027Z,4.66
2023-02-18T03:06:20.005Z,4.54
2023-02-18T03:09:34.657Z,4.58
2023-02-18T03:12:23.420Z,4.57
2023-02-18T03:15:09.359Z,4.69
2023-02-18T03:18:03.793Z,4.62
2023-02-18T03:21:05.729Z,4.63
2023-02-18T03:24:21.111Z,4.65
2023-02-18T03:27:14.611Z,4.53
2023-02-18T03:30:15.200Z,4.59
2023-02-18T03:33:04.612Z,4.52
2023-02-18T03:35:51.300Z,4.60
2023-02-18T03:38:42.623Z,4.58
2023-02-18T03:41:29.227Z,4.62
2023-02-18T03:44:15.697Z,4.60
2023-02-18T03:47:01.628Z,4.54
2023-02-18T03:49:47.458Z,4.62
2023-02-18T03:52:36.662Z,4.52
2023-02-18T03:55:22.891Z,4.63
2023-02-18T03:58:08.908Z,4.58
2023-02-18T04:00:54.786Z,4.62
2023-02-18T04:03:40.492Z,4.59
2023-02-18T04:06:26.482Z,4.48
2023-02-18T04:09:12.387Z,4.48
2023-02-18T04:11:58.106Z,4.55
2023-02-18T04:14:44.348Z,4.47
2023-02-18T04:17:30.379Z,4.56
2023-02-18T04:20:16.785Z,4.56
2023-02-18T04:23:02.674Z,4.47
2023-02-18T04:25:48.821Z,4.49
2023-02-18T04:28:34.639Z,4.57
2023-02-18T04:31:20.497Z,4.44
2023-02-18T04:34:06.750Z,4.54
2023-02-18T04:36:52.567Z,4.46
2023-02-18T04:39:38.299Z,4.44
2023-02-18T04:42:24.355Z,4.44
2023-02-18T04:45:10.168Z,4.21
2023-02-18T04:47:55.937Z,4.34
2023-02-18T04:50:42.259Z,4.27
2023-02-18T04:53:28.118Z,4.31
2023-02-18T04:56:13.999Z,4.23
2023-02-18T04:58:59.863Z,4.23
2023-02-18T05:01:45.684Z,4.17
2023-02-18T05:04:31.813Z,4.18
2023-02-18T05:07:17.999Z,4.06
2023-02-18T05:10:04.075Z,4.02
2023-02-18T05:12:50.107Z,4.06
2023-02-18T05:15:35.887Z,4.06
2023-02-18T05:18:21.478Z,4.10
2023-02-18T05:21:07.405Z,4.06
2023-02-18T05:23:53.216Z,4.00
2023-02-18T05:26:39.157Z,4.01
2023-02-18T05:29:25.208Z,4.06
2023-02-18T05:32:11.106Z,4.14
2023-02-18T05:34:57.121Z,4.12
2023-02-18T05:37:42.768Z,4.15
2023-02-18T05:40:28.624Z,4.18
2023-02-18T05:43:14.720Z,4.19
2023-02-18T05:46:00.697Z,4.15
2023-02-18T05:48:46.504Z,4.28
2023-02-18T05:51:32.154Z,4.34
2023-02-18T05:54:18.000Z,4.38
2023-02-18T05:57:04.169Z,4.34
2023-02-18T05:59:50.287Z,4.35
2023-02-18T06:02:36.938Z,4.41
2023-02-18T06:05:23.036Z,4.32
2023-02-18T06:08:08.773Z,4.41
2023-02-18T06:10:55.023Z,4.37
2023-02-18T06:13:40.898Z,4.38
2023-02-18T06:16:26.748Z,4.31
2023-02-18T06:19:12.983Z,4.24
2023-02-18T06:21:58.964Z,4.29
2023-02-18T06:24:44.826Z,4.30
2023-02-18T06:27:30.761Z,4.28
2023-02-18T06:30:16.557Z,4.30
2023-02-18T06:33:04.702Z,4.32
2023-02-18T06:35:59.460Z,4.32
2023-02-18T06:38:46.171Z,4.40
2023-02-18T06:41:32.233Z,4.43
2023-02-18T06:44:18.065Z,4.49
2023-02-18T06:47:04.166Z,4.47
2023-02-18T06:49:50.145Z,4.49
2023-02-18T06:52:38.122Z,4.59
2023-02-18T06:55:23.958Z,4.49
2023-02-18T06:58:10.881Z,4.65
2023-02-18T07:00:57.190Z,4.71
2023-02-18T07:03:43.152Z,4.73
2023-02-18T07:06:28.898Z,4.79
2023-02-18T07:09:14.834Z,4.85
2023-02-18T07:12:00.674Z,4.90
2023-02-18T07:14:46.624Z,4.97
2023-02-18T07:17:32.454Z,5.01
2023-02-18T07:20:19.308Z,5.08
2023-02-18T07:23:05.156Z,5.14
2023-02-18T07:25:51.216Z,5.19
2023-02-18T07:28:37.097Z,5.26
2023-02-18T07:31:23.168Z,5.32
2023-02-18T07:34:09.726Z,5.31
2023-02-18T07:36:55.863Z,5.46
2023-02-18T07:39:43.193Z,5.48
2023-02-18T07:42:29.100Z,5.59
2023-02-18T07:45:15.643Z,5.69
2023-02-18T07:48:02.042Z,5.78
2023-02-18T07:50:47.988Z,5.78
2023-02-18T07:53:33.822Z,5.89
2023-02-18T07:56:19.856Z,6.01
2023-02-18T07:59:06.043Z,6.23
2023-02-18T08:01:52.042Z,6.32
2023-02-18T08:04:38.389Z,6.45
2023-02-18T08:07:24.123Z,6.51
2023-02-18T08:10:10.141Z,6.56
2023-02-18T08:12:56.108Z,6.77
2023-02-18T08:15:42.287Z,6.95
2023-02-18T08:18:28.100Z,7.05
2023-02-18T08:21:15.005Z,7.17
2023-02-18T08:24:01.002Z,7.40
2023-02-18T08:26:59.817Z,7.58
2023-02-18T08:29:46.373Z,7.74
2023-02-18T08:32:32.542Z,7.72
2023-02-18T08:35:18.698Z,8.03
2023-02-18T08:38:04.928Z,8.19
2023-02-18T08:40:51.711Z,8.21
2023-02-18T08:43:37.894Z,8.40
2023-02-18T08:46:25.281Z,8.59
2023-02-18T08:49:21.149Z,8.75
2023-02-18T08:52:07.413Z,8.87
2023-02-18T08:54:53.890Z,9.02
2023-02-18T08:57:40.423Z,9.14
2023-02-18T09:00:27.240Z,9.31
2023-02-18T09:03:14.471Z,9.38
2023-02-18T09:06:00.555Z,9.56
2023-02-18T09:08:46.797Z,9.60
2023-02-18T09:11:33.084Z,9.74
2023-02-18T09:14:19.199Z,10.04
2023-02-18T09:17:05.050Z,10.17
2023-02-18T09:19:50.877Z,10.35
2023-02-18T09:22:36.869Z,10.52
2023-02-18T09:25:22.921Z,10.68
2023-02-18T09:28:08.572Z,10.67
2023-02-18T09:30:54.766Z,10.92
2023-02-18T09:33:45.684Z,11.05
2023-02-18T09:36:32.400Z,11.16
2023-02-18T09:39:20.153Z,11.26
2023-02-18T09:42:08.601Z,11.26
2023-02-18T09:44:56.674Z,11.40
2023-02-18T09:47:43.918Z,11.55
2023-02-18T09:50:33.576Z,11.37
2023-02-18T09:53:20.187Z,11.60
2023-02-18T09:56:07.319Z,11.47
2023-02-18T09:58:54.381Z,11.72
2023-02-18T10:01:41.833Z,11.71
2023-02-18T10:04:39.991Z,11.84
2023-02-18T10:07:33.700Z,11.96
2023-02-18T10:10:31.859Z,11.93
2023-02-18T10:13:21.828Z,12.25
2023-02-18T10:16:09.844Z,12.35
2023-02-18T10:18:58.407Z,12.35
2023-02-18T10:21:45.594Z,12.42
2023-02-18T10:24:44.822Z,12.42
2023-02-18T10:27:33.109Z,12.60
2023-02-18T10:30:37.868Z,12.52
2023-02-18T10:33:32.760Z,12.76
2023-02-18T10:36:37.412Z,12.79
2023-02-18T10:39:33.128Z,12.92
2023-02-18T10:42:37.768Z,12.88
2023-02-18T10:45:37.765Z,13.04
2023-02-18T10:49:05.874Z,12.99
2023-02-18T10:51:55.173Z,13.21
2023-02-18T10:54:58.071Z,13.23
2023-02-18T10:57:52.294Z,13.37
2023-02-18T11:00:39.820Z,13.56
2023-02-18T11:03:36.714Z,13.56
2023-02-18T11:06:32.074Z,13.69
2023-02-18T11:09:47.979Z,13.73
2023-02-18T11:12:49.407Z,13.87
2023-02-18T11:15:35.949Z,13.95
2023-02-18T11:18:44.358Z,14.14
2023-02-18T11:21:35.497Z,14.14
2023-02-18T11:24:22.116Z,14.23
2023-02-18T11:27:13.562Z,14.30
2023-02-18T11:30:07.345Z,14.38
2023-02-18T11:33:00.667Z,14.47
2023-02-18T11:35:51.850Z,14.52
2023-02-18T11:38:44.899Z,14.57
2023-02-18T11:41:40.448Z,14.49
2023-02-18T11:44:26.349Z,14.56
2023-02-18T11:47:15.068Z,14.65
2023-02-18T11:50:15.653Z,14.63
2023-02-18T11:53:31.774Z,14.71
2023-02-18T11:56:20.309Z,14.77
2023-02-18T11:59:07.245Z,14.80
2023-02-18T12:01:59.329Z,14.79
2023-02-18T12:04:59.477Z,14.81
2023-02-18T12:07:55.257Z,14.85
2023-02-18T12:10:44.843Z,14.91
2023-02-18T12:13:37.052Z,14.83
2023-02-18T12:16:41.552Z,14.89
2023-02-18T12:19:40.621Z,14.91
2023-02-18T12:22:42.061Z,14.89
2023-02-18T12:25:45.119Z,14.94
2023-02-18T12:28:43.027Z,14.84
2023-02-18T12:31:53.203Z,14.95
2023-02-18T12:35:03.802Z,15.04
2023-02-18T12:37:56.631Z,15.05
2023-02-18T12:40:51.487Z,15.08
2023-02-18T12:44:19.213Z,15.19
2023-02-18T12:47:05.044Z,15.23
2023-02-18T12:50:12.933Z,15.04
2023-02-18T12:53:07.820Z,15.23
2023-02-18T12:56:12.277Z,15.26
2023-02-18T12:59:20.898Z,15.39
2023-02-18T13:02:22.372Z,15.35
2023-02-18T13:05:37.546Z,15.49
2023-02-18T13:08:23.462Z,15.58
2023-02-18T13:11:32.651Z,15.61
2023-02-18T13:14:24.810Z,15.60
2023-02-18T13:17:11.587Z,15.76
2023-02-18T13:20:24.044Z,15.77
2023-02-18T13:23:19.757Z,15.80
2023-02-18T13:26:07.139Z,15.82
2023-02-18T13:29:02.340Z,15.87
2023-02-18T13:32:08.045Z,15.89
2023-02-18T13:35:09.501Z,16.00
2023-02-18T13:38:04.204Z,16.05
2023-02-18T13:40:50.676Z,16.18
2023-02-18T13:43:36.768Z,16.24
2023-02-18T13:46:24.129Z,16.38
2023-02-18T13:49:15.742Z,16.55
2023-02-18T13:52:03.493Z,16.60
2023-02-18T13:54:51.521Z,16.71
2023-02-18T13:57:39.405Z,16.96
2023-02-18T14:00:35.860Z,17.01
2023-02-18T14:03:30.839Z,17.24
2023-02-18T14:07:03.080Z,17.25
2023-02-18T14:09:49.357Z,17.40
2023-02-18T14:12:38.513Z,17.48
2023-02-18T14:15:24.311Z,17.42
2023-02-18T14:18:13.509Z,17.35
2023-02-18T14:21:22.430Z,17.17
2023-02-18T14:24:11.706Z,17.13
2023-02-18T14:27:09.533Z,16.98
2023-02-18T14:29:55.772Z,17.04
2023-02-18T14:32:42.194Z,16.94
2023-02-18T14:35:53.435Z,16.82
2023-02-18T14:39:04.021Z,16.67
2023-02-18T14:42:04.097Z,16.59
2023-02-18T14:45:00.554Z,16.65
2023-02-18T14:48:01.472Z,16.54
2023-02-18T14:50:50.342Z,16.51
2023-02-18T14:53:43.005Z,16.46
2023-02-18T14:56:29.138Z,16.39
2023-02-18T14:59:15.511Z,16.35
2023-02-18T15:02:01.803Z,16.20
2023-02-18T15:04:48.031Z,16.23
2023-02-18T15:07:34.113Z,16.15
2023-02-18T15:10:20.221Z,16.15
2023-02-18T15:13:10.079Z,16.10
2023-02-18T15:16:02.670Z,15.98
2023-02-18T15:18:54.515Z,15.91
2023-02-18T15:21:43.430Z,15.95
2023-02-18T15:24:34.771Z,15.78
2023-02-18T15:27:23.175Z,15.71
2023-02-18T15:30:22.404Z,15.54
2023-02-18T15:33:12.022Z,15.53
2023-02-18T15:36:07.715Z,15.37
2023-02-18T15:38:54.300Z,15.38
2023-02-18T15:41:40.579Z,15.29
2023-02-18T15:44:29.517Z,15.20
2023-02-18T15:47:17.471Z,15.19
2023-02-18T15:50:04.409Z,15.10
2023-02-18T15:52:50.906Z,15.10
2023-02-18T15:55:41.695Z,14.89
2023-02-18T15:58:33.135Z,14.90
2023-02-18T16:01:29.538Z,14.85
2023-02-18T16:04:15.987Z,14.83
2023-02-18T16:07:18.979Z,14.69
2023-02-18T16:10:14.945Z,14.73
2023-02-18T16:13:01.393Z,14.65
2023-02-18T16:15:50.294Z,14.48
2023-02-18T16:18:40.950Z,14.47
2023-02-18T16:21:34.326Z,14.36
2023-02-18T16:24:26.512Z,14.25
2023-02-18T16:27:17.292Z,14.25
2023-02-18T16:30:15.963Z,14.15
2023-02-18T16:33:01.932Z,14.21
2023-02-18T16:35:50.221Z,14.06
2023-02-18T16:38:36.621Z,14.09
2023-02-18T16:41:22.360Z,14.06
2023-02-18T16:44:14.116Z,13.88
2023-02-18T16:46:59.979Z,13.86
2023-02-18T16:49:47.347Z,13.86
2023-02-18T16:52:33.257Z,13.82
2023-02-18T16:55:22.579Z,13.81
2023-02-18T16:58:08.706Z,13.77
2023-02-18T17:00:55.014Z,13.72
2023-02-18T17:03:41.288Z,13.64
2023-02-18T17:06:27.829Z,13.62
2023-02-18T17:09:23.386Z,13.53
2023-02-18T17:12:09.648Z,13.57
2023-02-18T17:14:55.585Z,13.45
2023-02-18T17:17:41.500Z,13.42
2023-02-18T17:20:29.106Z,13.33
2023-02-18T17:23:22.370Z,13.40
2023-02-18T17:26:16.220Z,13.32
2023-02-18T17:29:02.513Z,13.23
2023-02-18T17:31:50.548Z,13.30
2023-02-18T17:34:41.073Z,13.20
2023-02-18T17:37:29.746Z,13.13
2023-02-18T17:40:18.205Z,13.20
2023-02-18T17:43:04.215Z,13.16
2023-02-18T17:45:52.811Z,13.03
2023-02-18T17:48:39.897Z,13.09
2023-02-18T17:51:28.023Z,13.04
2023-02-18T17:54:19.508Z,12.98
2023-02-18T17:57:05.876Z,12.99
2023-02-18T17:59:51.600Z,12.96
2023-02-18T18:02:37.564Z,12.89
2023-02-18T18:05:24.364Z,12.87
2023-02-18T18:08:10.633Z,12.79
2023-02-18T18:10:59.776Z,12.73
2023-02-18T18:13:46.571Z,12.73
2023-02-18T18:16:32.730Z,12.55
2023-02-18T18:19:18.596Z,12.64
2023-02-18T18:22:08.624Z,12.61
2023-02-18T18:25:00.889Z,12.60
2023-02-18T18:27:47.319Z,12.51
2023-02-18T18:30:35.729Z,12.52
2023-02-18T18:33:27.230Z,12.54
2023-02-18T18:36:13.473Z,12.48
2023-02-18T18:38:59.639Z,12.48
2023-02-18T18:41:45.990Z,12.44
2023-02-18T18:44:31.900Z,12.43
2023-02-18T18:47:17.939Z,12.32
2023-02-18T18:50:04.146Z,12.35
2023-02-18T18:52:51.525Z,12.31
2023-02-18T18:55:38.814Z,12.33
2023-02-18T18:58:25.772Z,12.29
2023-02-18T19:01:17.574Z,12.19
2023-02-18T19:04:04.065Z,12.23
2023-02-18T19:06:49.893Z,12.09
2023-02-18T19:09:35.800Z,12.11
2023-02-18T19:12:21.725Z,12.11
2023-02-18T19:15:09.714Z,11.99
2023-02-18T19:17:56.750Z,12.05
2023-02-18T19:20:43.070Z,11.95
2023-02-18T19:23:29.215Z,11.96
2023-02-18T19:26:16.914Z,11.83
2023-02-18T19:29:03.467Z,11.88
2023-02-18T19:31:50.769Z,11.95
2023-02-18T19:34:37.167Z,11.87
2023-02-18T19:37:24.698Z,11.93
2023-02-18T19:40:13.475Z,11.87
2023-02-18T19:42:59.437Z,11.93
2023-02-18T19:45:47.039Z,11.77
2023-02-18T19:48:33.136Z,11.87
2023-02-18T19:51:21.425Z,11.89
2023-02-18T19:54:07.590Z,11.83
2023-02-18T19:56:53.461Z,11.88
2023-02-18T19:59:40.500Z,11.84
2023-02-18T20:02:27.600Z,11.76
2023-02-18T20:05:14.190Z,11.82
2023-02-18T20:08:00.028Z,11.74
2023-02-18T20:10:46.042Z,11.76
2023-02-18T20:13:32.206Z,11.72
2023-02-18T20:16:18.460Z,11.75
2023-02-18T20:19:04.728Z,11.71
2023-02-18T20:21:51.578Z,11.74
2023-02-18T20:24:39.652Z,11.70
2023-02-18T20:27:25.971Z,11.66
2023-02-18T20:30:12.358Z,11.66
2023-02-18T20:32:58.444Z,11.57
2023-02-18T20:35:44.660Z,11.52
2023-02-18T20:38:31.521Z,11.43
2023-02-18T20:41:19.025Z,11.57
2023-02-18T20:44:05.649Z,11.53
2023-02-18T20:46:52.082Z,11.40
2023-02-18T20:49:38.538Z,11.44
2023-02-18T20:52:24.702Z,11.43
2023-02-18T20:55:10.902Z,11.44
2023-02-18T20:57:57.182Z,11.40
2023-02-18T21:00:43.548Z,11.37
2023-02-18T21:03:30.686Z,11.44
2023-02-18T21:06:19.564Z,11.38
2023-02-18T21:09:06.204Z,11.32
2023-02-18T21:11:52.316Z,11.37
2023-02-18T21:14:38.263Z,11.36
2023-02-18T21:17:24.120Z,11.32
2023-02-18T21:20:10.400Z,11.31
2023-02-18T21:22:56.462Z,11.29
2023-02-18T21:25:42.340Z,11.33
2023-02-18T21:28:28.080Z,11.27
2023-02-18T21:31:19.498Z,11.27
2023-02-18T21:34:06.989Z,11.18
2023-02-18T21:36:53.278Z,11.19
2023-02-18T21:39:39.181Z,11.18
2023-02-18T21:42:25.168Z,11.19
2023-02-18T21:45:16.937Z,11.22
2023-02-18T21:48:22.302Z,11.19
2023-02-18T21:51:08.598Z,11.06
2023-02-18T21:53:54.649Z,11.05
2023-02-18T21:56:40.527Z,11.10
2023-02-18T21:59:28.069Z,11.08
2023-02-18T22:02:23.145Z,11.03
2023-02-18T22:05:09.959Z,11.08
2023-02-18T22:07:56.594Z,11.11
2023-02-18T22:10:42.416Z,11.03
2023-02-18T22:13:28.538Z,11.02
2023-02-18T22:16:14.708Z,11.07
2023-02-18T22:19:00.559Z,11.04
2023-02-18T22:21:46.683Z,11.04
2023-02-18T22:24:32.894Z,11.08
2023-02-18T22:27:19.550Z,11.06
2023-02-18T22:30:06.321Z,11.00
2023-02-18T22:32:52.229Z,11.02
2023-02-18T22:35:37.872Z,10.99
2023-02-18T22:38:23.697Z,10.97
2023-02-18T22:41:11.980Z,10.96
2023-02-18T22:44:01.233Z,10.92
2023-02-18T22:46:47.545Z,10.79
2023-02-18T22:49:33.722Z,10.85
2023-02-18T22:52:19.996Z,10.76
2023-02-18T22:55:06.204Z,10.81
2023-02-18T22:57:52.327Z,10.79
2023-02-18T23:00:38.261Z,10.67
2023-02-18T23:03:24.058Z,10.70
2023-02-18T23:06:10.086Z,10.60
2023-02-18T23:08:56.581Z,10.65
2023-02-18T23:11:42.686Z,10.59
2023-02-18T23:14:30.584Z,10.54
2023-02-18T23:17:19.504Z,10.53
2023-02-18T23:20:06.075Z,10.49
2023-02-18T23:22:51.962Z,10.43
2023-02-18T23:25:37.825Z,10.36
2023-02-18T23:28:23.639Z,10.22
2023-02-18T23:31:10.062Z,10.25
2023-02-18T23:33:58.639Z,10.10
2023-02-18T23:36:46.007Z,10.03
2023-02-18T23:39:32.126Z,9.97
2023-02-18T23:42:18.044Z,9.87
2023-02-18T23:45:04.032Z,9.82
2023-02-18T23:47:50.116Z,9.70
2023-02-18T23:50:35.996Z,9.64
2023-02-18T23:53:25.787Z,9.59
2023-02-18T23:56:18.939Z,9.51
2023-02-18T23:59:05.635Z,9.33
